Time;durP1;ratioP1;P1;durP2;ratioP2;P2;SDS_P1;SDS_P2;PMS_P1;PMS_P2;Temp;Humidity;BMP_temperature;BMP_pressure;BME280_temperature;BME280_humidity;BME280_pressure;Samples;Min_cycle;Max_cycle;Signal;HPM_P1;HPM_P2
2022/09/01 00:00:13;;;;;;;4.90;1.55;;;14.80;99.90;;;;;;5135547;27;20490;-70
2022/09/01 00:02:41;;;;;;;5.80;1.63;;;14.80;99.90;;;;;;5117324;27;20389;-74
2022/09/01 00:05:11;;;;;;;2.78;1.48;;;14.80;99.90;;;;;;5135031;27;20514;-74
2022/09/01 00:07:38;;;;;;;3.53;1.60;;;14.80;99.90;;;;;;5117321;27;20062;-73
2022/09/01 00:10:07;;;;;;;3.17;1.60;;;14.80;99.90;;;;;;5126236;27;20051;-73
2022/09/01 00:12:35;;;;;;;5.35;1.40;;;14.90;99.90;;;;;;5135008;27;20039;-74
2022/09/01 00:15:04;;;;;;;2.95;1.42;;;14.90;99.90;;;;;;5134826;27;20047;-73
2022/09/01 00:17:33;;;;;;;4.18;1.40;;;14.90;99.90;;;;;;5117159;27;20406;-73
2022/09/01 00:20:00;;;;;;;3.17;2.03;;;14.90;99.90;;;;;;5116704;27;20073;-73
2022/09/01 00:22:28;;;;;;;4.32;1.30;;;14.90;99.90;;;;;;5117255;27;20058;-73
2022/09/01 00:24:55;;;;;;;2.30;1.30;;;14.80;99.90;;;;;;5134472;27;20069;-73
2022/09/01 00:27:22;;;;;;;2.28;1.05;;;14.80;99.90;;;;;;5134770;27;20119;-74
2022/09/01 00:29:49;;;;;;;2.15;1.13;;;14.90;99.90;;;;;;5135499;27;20436;-74
2022/09/01 00:32:16;;;;;;;2.03;1.13;;;14.90;99.90;;;;;;5134431;27;20047;-73
2022/09/01 00:34:43;;;;;;;3.13;1.30;;;14.90;99.90;;;;;;5134871;27;20502;-74
2022/09/01 00:37:10;;;;;;;2.28;1.23;;;14.90;99.90;;;;;;5116650;27;20409;-73
2022/09/01 00:39:38;;;;;;;4.10;1.10;;;14.90;99.90;;;;;;5134504;27;20043;-73
2022/09/01 00:42:05;;;;;;;2.75;1.48;;;14.90;99.90;;;;;;5116574;27;20043;-74
2022/09/01 00:44:35;;;;;;;5.80;1.50;;;14.90;99.90;;;;;;5135016;27;20043;-73
2022/09/01 00:47:04;;;;;;;3.22;1.30;;;14.90;99.90;;;;;;5134309;27;20100;-73
2022/09/01 00:49:34;;;;;;;2.40;1.00;;;14.90;99.90;;;;;;5116242;27;20047;-73
2022/09/01 00:52:06;;;;;;;2.47;1.42;;;14.90;99.90;;;;;;5120745;27;20055;-73
2022/09/01 00:54:35;;;;;;;3.53;1.23;;;14.90;99.90;;;;;;5136266;27;20051;-73
2022/09/01 00:57:05;;;;;;;2.53;1.35;;;14.90;99.90;;;;;;5136865;27;20103;-74
2022/09/01 00:59:32;;;;;;;2.22;1.25;;;14.90;99.90;;;;;;5155454;27;20504;-74
2022/09/01 01:02:00;;;;;;;1.90;1.05;;;14.90;99.90;;;;;;5136449;27;20419;-74
2022/09/01 01:04:26;;;;;;;3.60;1.10;;;14.90;99.90;;;;;;5136812;27;20047;-73
2022/09/01 01:07:01;;;;;;;4.00;1.30;;;14.90;99.90;;;;;;5131717;27;20107;-73
2022/09/01 01:09:32;;;;;;;2.60;1.20;;;14.90;99.90;;;;;;5116094;27;20123;-74
2022/09/01 01:12:00;;;;;;;2.33;1.00;;;14.90;99.90;;;;;;5134377;27;20103;-73
2022/09/01 01:14:31;;;;;;;5.57;1.00;;;14.90;99.90;;;;;;5115482;27;20047;-75
2022/09/01 01:16:58;;;;;;;;;;;15.00;99.90;;;;;;5134274;27;20050;-73
2022/09/01 01:25:11;;;;;;;3.00;1.35;;;15.00;99.90;;;;;;5116122;27;20100;-73
2022/09/01 01:27:41;;;;;;;2.10;1.00;;;15.00;99.90;;;;;;5115545;27;20126;-74
2022/09/01 01:30:10;;;;;;;1.50;0.90;;;15.00;99.90;;;;;;5114954;27;20051;-74
2022/09/01 01:32:41;;;;;;;2.25;1.10;;;15.00;99.90;;;;;;5115801;27;20043;-74
2022/09/01 01:35:13;;;;;;;2.40;1.10;;;15.00;99.90;;;;;;5115485;27;20121;-74
2022/09/01 01:37:47;;;;;;;2.30;1.35;;;15.00;99.90;;;;;;5115723;28;20077;-74
2022/09/01 01:40:19;;;;;;;2.70;1.20;;;15.00;99.90;;;;;;5133968;27;20047;-75
2022/09/01 01:42:48;;;;;;;4.13;1.05;;;15.00;99.90;;;;;;5115438;28;20050;-74
2022/09/01 01:45:16;;;;;;;3.33;1.02;;;15.00;99.90;;;;;;5115765;27;20046;-74
2022/09/01 01:47:46;;;;;;;5.85;1.48;;;15.00;99.90;;;;;;5117667;27;20094;-73
2022/09/01 01:50:14;;;;;;;5.47;1.17;;;15.00;99.90;;;;;;5135532;27;20455;-74
2022/09/01 01:52:41;;;;;;;4.10;1.30;;;15.10;99.90;;;;;;5154243;27;20052;-74
2022/09/01 01:55:11;;;;;;;1.90;1.20;;;15.10;99.90;;;;;;5154652;27;20053;-75
2022/09/01 01:57:48;;;;;;;3.08;0.95;;;15.10;99.90;;;;;;5142055;27;20071;-75
2022/09/01 02:00:19;;;;;;;2.25;1.13;;;15.10;99.90;;;;;;5115454;28;20051;-75
2022/09/01 02:02:51;;;;;;;3.00;1.08;;;15.10;99.90;;;;;;5151550;27;20047;-74
2022/09/01 02:05:23;;;;;;;3.33;1.30;;;15.20;99.90;;;;;;5153634;27;20054;-74
2022/09/01 02:07:54;;;;;;;3.88;1.02;;;15.20;99.90;;;;;;5134956;27;20142;-75
2022/09/01 02:10:23;;;;;;;2.90;1.17;;;15.20;99.90;;;;;;5154183;27;20073;-74
2022/09/01 02:12:52;;;;;;;2.92;1.27;;;15.30;99.90;;;;;;5135880;27;20570;-75
2022/09/01 02:15:20;;;;;;;3.63;1.30;;;15.30;99.90;;;;;;5154501;27;20513;-76
2022/09/01 02:17:47;;;;;;;1.95;1.17;;;15.30;99.90;;;;;;5152958;27;20107;-74
2022/09/01 02:20:15;;;;;;;2.65;1.52;;;15.30;99.90;;;;;;5136016;27;20051;-73
2022/09/01 02:22:43;;;;;;;9.55;1.63;;;15.40;99.90;;;;;;5154359;27;20496;-74
2022/09/01 02:25:12;;;;;;;2.30;1.20;;;15.40;99.90;;;;;;5135293;27;20050;-74
2022/09/01 02:27:43;;;;;;;2.20;1.13;;;15.30;99.90;;;;;;5135704;27;20054;-74
2022/09/01 02:30:12;;;;;;;2.65;1.20;;;15.40;99.90;;;;;;5152657;27;20129;-74
2022/09/01 02:32:40;;;;;;;2.90;1.23;;;15.30;99.90;;;;;;5138690;27;20146;-74
2022/09/01 02:35:08;;;;;;;2.28;1.45;;;15.30;99.90;;;;;;5139452;27;20043;-75
2022/09/01 02:37:38;;;;;;;3.50;1.48;;;15.30;99.90;;;;;;5139690;27;20046;-74
2022/09/01 02:40:09;;;;;;;2.58;1.33;;;15.30;99.90;;;;;;5139412;27;20053;-75
2022/09/01 02:42:39;;;;;;;2.90;1.38;;;15.30;99.90;;;;;;5139558;27;20077;-74
2022/09/01 02:45:15;;;;;;;;;;;15.20;99.90;;;;;;5126812;27;20054;-75
2022/09/01 02:47:44;;;;;;;2.63;1.60;;;15.20;99.90;;;;;;5136545;27;19919;-74
2022/09/01 02:50:15;;;;;;;2.83;1.90;;;15.20;99.90;;;;;;5133338;27;20157;-74
2022/09/01 02:52:44;;;;;;;2.50;1.58;;;15.10;99.90;;;;;;5157436;27;20409;-74
2022/09/01 02:55:11;;;;;;;3.95;1.60;;;15.00;99.90;;;;;;5139015;27;20051;-74
2022/09/01 02:57:39;;;;;;;3.97;1.75;;;15.00;99.90;;;;;;5135095;27;20043;-74
2022/09/01 03:00:19;;;;;;;2.83;2.10;;;14.90;99.90;;;;;;5136602;27;20095;-73
2022/09/01 03:02:51;;;;;;;6.25;2.28;;;14.90;99.90;;;;;;5118641;27;20090;-74
2022/09/01 03:05:24;;;;;;;2.92;1.50;;;14.80;99.90;;;;;;5118868;27;20074;-74
2022/09/01 03:07:55;;;;;;;2.90;1.65;;;14.80;99.90;;;;;;5118124;27;20066;-74
2022/09/01 03:10:25;;;;;;;3.40;1.48;;;14.70;99.90;;;;;;5118479;27;20148;-74
2022/09/01 03:12:53;;;;;;;;;;;14.60;99.90;;;;;;5137027;27;20048;-74
2022/09/01 03:15:20;;;;;;;3.30;1.77;;;14.50;99.90;;;;;;5136173;27;19920;-74
2022/09/01 03:17:48;;;;;;;2.33;1.30;;;14.50;99.90;;;;;;5136339;27;20051;-74
2022/09/01 03:20:18;;;;;;;2.28;1.73;;;14.50;99.90;;;;;;5118253;27;20100;-74
2022/09/01 03:22:46;;;;;;;2.35;1.73;;;14.40;99.90;;;;;;5117485;27;20050;-74
2022/09/01 03:25:13;;;;;;;6.80;2.00;;;14.50;99.90;;;;;;5136517;27;20047;-75
2022/09/01 03:27:40;;;;;;;3.35;1.73;;;14.40;99.90;;;;;;5117843;27;20441;-74
2022/09/01 03:30:08;;;;;;;5.43;1.80;;;14.40;99.90;;;;;;5118023;27;20100;-73
2022/09/01 03:32:35;;;;;;;4.60;1.80;;;14.40;99.90;;;;;;5117980;27;20055;-73
2022/09/01 03:35:04;;;;;;;4.47;1.80;;;14.40;99.90;;;;;;5135520;27;20456;-74
2022/09/01 03:37:31;;;;;;;2.50;1.60;;;14.40;99.90;;;;;;5135938;27;20051;-74
2022/09/01 03:39:58;;;;;;;2.58;1.70;;;14.40;99.90;;;;;;5117829;27;20058;-74
2022/09/01 03:42:28;;;;;;;2.47;1.70;;;14.30;99.90;;;;;;5116831;27;20487;-74
2022/09/01 03:44:56;;;;;;;2.87;1.70;;;14.30;99.90;;;;;;5136008;27;20051;-74
2022/09/01 03:47:23;;;;;;;8.13;1.77;;;14.30;99.90;;;;;;5135845;27;20059;-73
2022/09/01 03:49:54;;;;;;;4.45;2.13;;;14.40;99.90;;;;;;5117093;27;20403;-74
2022/09/01 03:52:26;;;;;;;4.60;1.67;;;14.40;99.90;;;;;;5117667;27;20058;-74
2022/09/01 03:54:54;;;;;;;3.15;1.77;;;14.40;99.90;;;;;;5135941;27;20047;-74
2022/09/01 03:57:22;;;;;;;4.63;1.80;;;14.40;99.90;;;;;;5117069;27;20055;-73
2022/09/01 03:59:49;;;;;;;4.40;1.67;;;14.40;99.90;;;;;;5135587;27;20047;-73
2022/09/01 04:02:16;;;;;;;3.35;1.75;;;14.40;99.90;;;;;;5117481;27;20497;-73
2022/09/01 04:04:43;;;;;;;3.63;1.60;;;14.40;99.90;;;;;;5135106;27;20055;-74
2022/09/01 04:07:10;;;;;;;2.30;1.48;;;14.40;99.90;;;;;;5135888;27;20054;-74
2022/09/01 04:09:38;;;;;;;3.97;1.90;;;14.40;99.90;;;;;;5131141;27;20058;-72
2022/09/01 04:12:07;;;;;;;3.25;1.60;;;14.40;99.90;;;;;;5133570;27;20096;-75
2022/09/01 04:14:35;;;;;;;2.60;1.92;;;14.40;99.90;;;;;;5134496;27;20039;-74
2022/09/01 04:19:46;;;;;;;3.08;1.30;;;14.80;99.90;;;;;;5116978;27;20053;-74
2022/09/01 04:22:14;;;;;;;3.00;1.15;;;15.00;99.90;;;;;;5125033;27;20410;-74
2022/09/01 04:24:44;;;;;;;2.70;1.20;;;15.20;99.90;;;;;;5130922;27;20047;-74
2022/09/01 04:27:11;;;;;;;2.88;1.40;;;15.60;99.90;;;;;;5128385;27;20061;-73
2022/09/01 04:29:38;;;;;;;2.97;1.48;;;15.80;99.90;;;;;;5131662;27;20111;-74
2022/09/01 04:32:09;;;;;;;4.63;1.40;;;16.00;99.90;;;;;;5131579;27;20100;-74
2022/09/01 04:34:38;;;;;;;3.40;1.38;;;15.80;99.90;;;;;;5132228;27;20486;-73
2022/09/01 04:37:09;;;;;;;5.15;1.63;;;15.80;99.90;;;;;;5129249;27;20054;-74
2022/09/01 04:39:37;;;;;;;;;;;15.80;99.90;;;;;;5129417;27;20084;-74
2022/09/01 04:42:07;;;;;;;2.38;1.15;;;15.90;99.90;;;;;;5147140;27;19926;-75
2022/09/01 04:44:35;;;;;;;3.67;1.55;;;16.00;99.90;;;;;;5131667;27;20486;-75
2022/09/01 04:47:02;;;;;;;3.35;1.48;;;16.00;99.90;;;;;;5129146;27;20047;-75
2022/09/01 04:49:32;;;;;;;2.53;1.27;;;16.20;99.90;;;;;;5152075;27;20054;-75
2022/09/01 04:51:59;;;;;;;2.55;1.58;;;16.00;99.90;;;;;;5148933;27;20054;-74
2022/09/01 04:54:26;;;;;;;2.85;1.60;;;15.90;99.90;;;;;;5144751;27;20095;-75
2022/09/01 04:56:53;;;;;;;3.47;1.58;;;15.90;99.90;;;;;;5147824;27;20057;-74
2022/09/01 04:59:25;;;;;;;2.97;1.13;;;15.70;99.90;;;;;;5132429;27;20050;-75
2022/09/01 05:01:56;;;;;;;4.85;1.77;;;16.10;99.90;;;;;;5145633;27;20042;-74
2022/09/01 05:04:28;;;;;;;2.67;1.60;;;15.90;99.90;;;;;;5128796;27;20047;-74
2022/09/01 05:06:58;;;;;;;5.32;1.20;;;16.00;99.90;;;;;;5132140;27;20517;-74
2022/09/01 05:09:27;;;;;;;5.55;1.80;;;15.70;99.90;;;;;;5147950;27;20051;-74
2022/09/01 05:11:55;;;;;;;4.30;1.50;;;15.80;99.90;;;;;;5128323;27;20099;-74
2022/09/01 05:14:24;;;;;;;2.38;1.40;;;16.00;99.90;;;;;;5133437;27;20137;-75
2022/09/01 05:16:57;;;;;;;3.67;1.65;;;15.90;99.90;;;;;;5150056;27;20126;-73
2022/09/01 05:19:24;;;;;;;2.55;1.67;;;15.80;99.90;;;;;;5145087;27;20085;-74
2022/09/01 05:21:55;;;;;;;3.45;1.90;;;15.80;99.90;;;;;;5127501;27;20070;-75
2022/09/01 05:24:24;;;;;;;4.30;1.42;;;15.80;99.90;;;;;;5127017;27;20048;-73
2022/09/01 05:26:51;;;;;;;3.35;1.75;;;16.00;99.90;;;;;;5127018;27;20053;-74
2022/09/01 05:29:19;;;;;;;2.95;1.52;;;15.90;99.90;;;;;;5123539;27;20129;-76
2022/09/01 05:31:51;;;;;;;3.60;1.70;;;15.70;99.90;;;;;;5126819;27;20050;-75
2022/09/01 05:34:25;;;;;;;2.47;1.25;;;16.10;99.90;;;;;;5129615;27;20043;-75
2022/09/01 05:36:54;;;;;;;4.70;1.50;;;16.20;99.90;;;;;;5146097;27;20048;-75
2022/09/01 05:39:21;;;;;;;2.72;1.40;;;16.30;99.90;;;;;;5144317;27;20046;-75
2022/09/01 05:41:48;;;;;;;3.53;1.95;;;16.30;99.90;;;;;;5126277;27;20050;-74
2022/09/01 05:44:17;;;;;;;3.25;1.77;;;16.40;99.90;;;;;;5145218;27;20074;-74
2022/09/01 05:46:45;;;;;;;2.95;1.65;;;16.40;99.90;;;;;;5133177;27;20083;-73
2022/09/01 05:49:17;;;;;;;4.28;1.58;;;16.40;99.90;;;;;;5143359;27;20058;-74
2022/09/01 05:51:48;;;;;;;2.42;1.42;;;16.60;99.90;;;;;;5143523;27;20126;-73
2022/09/01 05:54:15;;;;;;;;;;;17.00;99.90;;;;;;5145450;27;20039;-74
2022/09/01 05:56:43;;;;;;;5.35;1.58;;;17.10;99.90;;;;;;5141226;27;19929;-74
2022/09/01 05:59:11;;;;;;;3.70;1.73;;;17.20;99.90;;;;;;5118442;27;20418;-74
2022/09/01 06:01:40;;;;;;;3.63;1.92;;;17.20;99.90;;;;;;5129715;27;20422;-77
2022/09/01 06:04:09;;;;;;;6.03;2.10;;;17.10;99.90;;;;;;5144341;27;20082;-77
2022/09/01 06:06:44;;;;;;;6.63;2.42;;;17.00;99.90;;;;;;5145820;27;20108;-73
2022/09/01 06:09:11;;;;;;;3.58;1.88;;;17.10;99.90;;;;;;5130083;27;20111;-74
2022/09/01 06:11:38;;;;;;;3.67;1.63;;;17.20;99.90;;;;;;5131288;27;20417;-74
2022/09/01 06:14:05;;;;;;;2.35;1.50;;;17.00;99.90;;;;;;5135791;27;20047;-73
2022/09/01 06:16:34;;;;;;;3.60;2.13;;;17.00;99.90;;;;;;5148197;27;20043;-73
2022/09/01 06:19:02;;;;;;;6.93;1.98;;;17.20;99.90;;;;;;5134276;27;20130;-72
2022/09/01 06:21:30;;;;;;;3.15;1.67;;;17.10;99.90;;;;;;5129761;27;20088;-74
2022/09/01 06:23:59;;;;;;;1.77;0.98;;;17.10;99.90;;;;;;5133614;27;20051;-74
2022/09/01 06:26:28;;;;;;;3.33;1.50;;;17.20;99.90;;;;;;5149348;27;20042;-74
2022/09/01 06:28:57;;;;;;;5.55;1.52;;;17.30;99.90;;;;;;5133581;27;20490;-74
2022/09/01 06:31:25;;;;;;;5.05;1.63;;;17.30;99.90;;;;;;5150553;27;20440;-73
2022/09/01 06:33:53;;;;;;;4.68;2.25;;;17.40;99.90;;;;;;5125495;27;20100;-74
2022/09/01 06:36:22;;;;;;;5.05;1.90;;;17.80;99.90;;;;;;5136376;27;20046;-75
2022/09/01 06:38:50;;;;;;;4.35;1.60;;;18.40;99.90;;;;;;5136406;27;20480;-73
2022/09/01 06:41:19;;;;;;;5.95;1.88;;;18.70;99.90;;;;;;5130465;27;20047;-75
2022/09/01 06:43:47;;;;;;;2.85;1.40;;;18.50;99.90;;;;;;5137282;27;20100;-74
2022/09/01 06:46:14;;;;;;;4.88;1.95;;;18.30;99.90;;;;;;5135195;27;20089;-75
2022/09/01 06:48:45;;;;;;;3.78;1.58;;;18.10;99.90;;;;;;5134710;27;20058;-74
2022/09/01 06:51:12;;;;;;;3.85;1.60;;;18.00;99.90;;;;;;5138829;27;20050;-74
2022/09/01 06:53:39;;;;;;;3.63;1.48;;;17.90;99.90;;;;;;5157122;27;20126;-74
2022/09/01 06:56:08;;;;;;;3.00;1.60;;;17.80;99.90;;;;;;5134625;27;20092;-74
2022/09/01 06:58:39;;;;;;;4.22;1.70;;;17.70;99.90;;;;;;5131421;27;20398;-75
2022/09/01 07:01:07;;;;;;;3.42;1.85;;;17.70;99.90;;;;;;5121062;27;20138;-75
2022/09/01 07:03:35;;;;;;;3.95;1.88;;;17.70;99.90;;;;;;5139564;27;20102;-74
2022/09/01 07:06:06;;;;;;;2.33;1.60;;;17.90;99.90;;;;;;5133533;27;20047;-75
2022/09/01 07:08:38;;;;;;;3.92;1.67;;;17.90;99.90;;;;;;5118126;27;20417;-74
2022/09/01 07:11:07;;;;;;;4.70;1.88;;;17.80;99.90;;;;;;5143462;27;20490;-75
2022/09/01 07:13:35;;;;;;;4.28;1.52;;;17.80;99.90;;;;;;5138488;27;20387;-74
2022/09/01 07:16:05;;;;;;;3.75;1.60;;;17.90;99.90;;;;;;5156310;27;20042;-74
2022/09/01 07:18:33;;;;;;;6.28;1.55;;;17.90;99.90;;;;;;5132565;27;20046;-74
2022/09/01 07:21:04;;;;;;;4.47;1.50;;;18.20;99.90;;;;;;5118442;27;20043;-73
2022/09/01 07:23:31;;;;;;;12.63;1.83;;;18.50;99.90;;;;;;5118859;27;20089;-74
2022/09/01 07:26:00;;;;;;;3.83;1.90;;;18.70;99.90;;;;;;5119453;27;20046;-74
2022/09/01 07:28:31;;;;;;;4.00;1.35;;;19.10;99.90;;;;;;5136693;27;20054;-74
2022/09/01 07:30:58;;;;;;;;;;;19.50;99.90;;;;;;5144174;27;20498;-74
2022/09/01 07:33:29;;;;;;;4.10;1.45;;;19.80;99.90;;;;;;5156354;27;20286;-73
2022/09/01 07:35:56;;;;;;;4.43;1.33;;;20.00;99.90;;;;;;5126630;27;20078;-75
2022/09/01 07:38:23;;;;;;;6.05;1.40;;;20.40;99.90;;;;;;5134769;27;20448;-74
2022/09/01 07:40:51;;;;;;;5.95;1.90;;;20.50;99.90;;;;;;5128215;27;20115;-74
2022/09/01 07:43:22;;;;;;;2.85;1.42;;;20.60;99.90;;;;;;5149468;27;20060;-73
2022/09/01 07:45:49;;;;;;;;;;;20.50;99.90;;;;;;5163840;27;20057;-74
2022/09/01 07:48:19;;;;;;;4.47;1.13;;;20.40;99.90;;;;;;5161283;27;20134;-73
2022/09/01 07:50:50;;;;;;;3.45;1.40;;;20.50;99.90;;;;;;5175396;27;20046;-72
2022/09/01 07:53:21;;;;;;;6.38;1.45;;;20.80;99.90;;;;;;5138343;27;20150;-74
2022/09/01 07:55:49;;;;;;;6.13;1.42;;;21.40;99.90;;;;;;5136823;27;20053;-74
2022/09/01 07:58:17;;;;;;;3.03;1.30;;;21.90;99.80;;;;;;5137433;27;20146;-74
2022/09/01 08:00:46;;;;;;;2.80;1.40;;;22.80;98.60;;;;;;5156104;27;20579;-74
2022/09/01 08:03:13;;;;;;;2.40;1.42;;;23.80;96.30;;;;;;5136724;27;20046;-74
2022/09/01 08:05:40;;;;;;;3.67;1.10;;;25.00;94.20;;;;;;5155273;27;20098;-74
2022/09/01 08:08:08;;;;;;;3.15;1.42;;;26.00;92.40;;;;;;5156187;27;20054;-75
2022/09/01 08:10:38;;;;;;;3.75;1.20;;;27.00;88.80;;;;;;5136717;27;20055;-75
2022/09/01 08:13:05;;;;;;;;;;;27.50;85.00;;;;;;5137810;27;20074;-74
2022/09/01 08:15:32;;;;;;;2.50;1.00;;;27.70;81.80;;;;;;5156103;27;19979;-75
2022/09/01 08:17:59;;;;;;;5.88;1.70;;;28.40;84.30;;;;;;5136914;27;20046;-74
2022/09/01 08:20:26;;;;;;;2.00;1.00;;;28.50;82.00;;;;;;5137442;27;20406;-75
2022/09/01 08:22:53;;;;;;;2.38;1.02;;;29.10;81.80;;;;;;5155995;27;20054;-73
2022/09/01 08:25:22;;;;;;;2.72;1.10;;;29.30;80.00;;;;;;5136671;27;20050;-73
2022/09/01 08:27:48;;;;;;;2.97;0.90;;;29.50;77.70;;;;;;5155472;27;20095;-75
2022/09/01 08:30:15;;;;;;;2.42;1.23;;;30.00;78.10;;;;;;5136046;27;20050;-74
2022/09/01 08:32:42;;;;;;;1.83;0.88;;;30.00;76.60;;;;;;5155053;27;20550;-74
2022/09/01 08:35:10;;;;;;;2.45;0.90;;;30.20;75.70;;;;;;5137306;27;20106;-74
2022/09/01 08:37:37;;;;;;;2.70;0.85;;;30.50;74.70;;;;;;5136679;27;20095;-74
2022/09/01 08:40:05;;;;;;;3.75;0.90;;;30.40;73.30;;;;;;5154446;27;20058;-74
2022/09/01 08:42:50;;;;;;;1.48;0.73;;;30.60;72.80;;;;;;5153408;27;20655;-74
2022/09/01 08:45:22;;;;;;;2.58;1.10;;;30.80;70.80;;;;;;5136344;27;20448;-74
2022/09/01 08:47:53;;;;;;;2.78;0.90;;;31.20;70.50;;;;;;5136547;27;20054;-73
2022/09/01 08:50:21;;;;;;;3.80;1.13;;;31.50;70.20;;;;;;5144810;27;20561;-74
2022/09/01 08:52:55;;;;;;;1.65;0.90;;;30.90;69.90;;;;;;5135875;27;20058;-74
2022/09/01 08:55:28;;;;;;;4.05;1.10;;;30.60;68.40;;;;;;5117488;27;20478;-74
2022/09/01 08:57:57;;;;;;;1.88;0.70;;;30.70;70.10;;;;;;5116027;27;20047;-74
2022/09/01 09:00:26;;;;;;;1.77;0.80;;;30.90;69.70;;;;;;5115015;27;20057;-75
2022/09/01 09:03:13;;;;;;;2.03;0.77;;;30.90;68.90;;;;;;5116212;27;20055;-74
2022/09/01 09:05:59;;;;;;;2.15;0.90;;;31.40;68.60;;;;;;5133778;27;20096;-74
2022/09/01 09:08:48;;;;;;;2.50;0.90;;;31.60;67.10;;;;;;5115274;27;20491;-74
2022/09/01 09:11:33;;;;;;;1.58;0.80;;;31.70;66.60;;;;;;5123083;27;20046;-74
2022/09/01 09:14:11;;;;;;;1.95;0.70;;;32.20;66.80;;;;;;5154143;27;20042;-74
2022/09/01 09:16:41;;;;;;;2.13;0.68;;;32.00;65.30;;;;;;5135279;27;20046;-74
2022/09/01 09:19:16;;;;;;;1.88;0.82;;;31.70;65.90;;;;;;5136346;27;20076;-74
2022/09/01 09:21:46;;;;;;;4.47;1.10;;;32.30;65.20;;;;;;5135328;27;20054;-74
2022/09/01 09:24:19;;;;;;;1.52;0.70;;;32.50;66.30;;;;;;5136223;27;20076;-74
2022/09/01 09:26:48;;;;;;;3.40;1.05;;;32.50;65.30;;;;;;5154197;27;20043;-75
2022/09/01 09:29:17;;;;;;;7.20;0.90;;;33.00;65.10;;;;;;5154398;27;20057;-75
2022/09/01 09:31:47;;;;;;;1.52;0.70;;;33.10;65.20;;;;;;5138805;27;20047;-74
2022/09/01 09:34:29;;;;;;;3.53;0.70;;;32.90;64.80;;;;;;5153963;27;20050;-75
2022/09/01 09:36:56;;;;;;;6.38;0.80;;;33.00;63.60;;;;;;5153664;27;20042;-74
2022/09/01 09:39:23;;;;;;;1.58;0.80;;;33.40;64.30;;;;;;5135536;27;20092;-74
2022/09/01 09:42:08;;;;;;;1.92;0.88;;;33.50;63.90;;;;;;5134697;27;20059;-74
2022/09/01 09:44:43;;;;;;;1.30;0.73;;;33.60;62.70;;;;;;5153250;27;20049;-75
2022/09/01 09:47:10;;;;;;;2.63;0.85;;;33.10;61.60;;;;;;5115346;28;20433;-74
2022/09/01 09:49:37;;;;;;;4.25;0.70;;;32.80;63.20;;;;;;5133460;27;20494;-75
2022/09/01 09:52:18;;;;;;;5.95;0.88;;;32.90;62.90;;;;;;5152648;27;20085;-74
2022/09/01 09:55:02;;;;;;;2.65;0.98;;;32.80;61.50;;;;;;5118874;27;20047;-77
2022/09/01 09:57:32;;;;;;;1.30;0.60;;;33.10;62.10;;;;;;5149268;27;20400;-72
2022/09/01 10:00:06;;;;;;;1.05;0.50;;;32.60;62.30;;;;;;5140131;27;20116;-75
2022/09/01 10:02:36;;;;;;;3.75;0.70;;;33.10;62.20;;;;;;5130818;27;20047;-75
2022/09/01 10:05:24;;;;;;;2.47;0.70;;;33.10;61.90;;;;;;5126264;27;20047;-75
2022/09/01 10:07:52;;;;;;;3.03;0.55;;;32.90;60.20;;;;;;5133024;27;20077;-75
2022/09/01 10:10:30;;;;;;;3.88;0.70;;;32.70;61.00;;;;;;5131322;27;20051;-75
2022/09/01 10:12:58;;;;;;;3.25;0.70;;;33.00;60.70;;;;;;5138017;27;20111;-75
2022/09/01 10:15:33;;;;;;;1.05;0.55;;;32.90;61.50;;;;;;5147556;27;20043;-75
2022/09/01 10:18:06;;;;;;;1.50;0.70;;;33.20;61.30;;;;;;5144436;27;20126;-75
2022/09/01 10:20:34;;;;;;;3.08;0.60;;;33.80;61.00;;;;;;5119408;27;20047;-75
2022/09/01 10:23:02;;;;;;;3.78;0.73;;;33.90;60.20;;;;;;5134815;27;20051;-75
2022/09/01 10:25:33;;;;;;;3.08;0.70;;;33.80;59.90;;;;;;5131493;27;20060;-75
2022/09/01 10:28:09;;;;;;;2.25;0.55;;;34.10;59.20;;;;;;5147925;27;20068;-74
2022/09/01 10:30:42;;;;;;;1.58;0.60;;;33.50;57.70;;;;;;5121289;28;20058;-77
2022/09/01 10:33:10;;;;;;;2.10;0.50;;;33.90;58.80;;;;;;5145779;27;20047;-76
2022/09/01 10:35:43;;;;;;;2.28;0.60;;;34.10;57.90;;;;;;5147336;27;20039;-76
2022/09/01 10:38:16;;;;;;;3.70;0.60;;;34.20;58.40;;;;;;5136324;27;20130;-76
2022/09/01 10:40:47;;;;;;;1.85;0.68;;;34.40;57.40;;;;;;5119957;28;20131;-75
2022/09/01 10:43:35;;;;;;;2.70;0.50;;;34.20;56.90;;;;;;5136236;27;20055;-75
2022/09/01 10:46:17;;;;;;;2.30;0.47;;;34.50;56.50;;;;;;5130585;27;20494;-75
2022/09/01 10:48:44;;;;;;;1.92;0.68;;;33.40;57.20;;;;;;5118303;27;20059;-76
2022/09/01 10:51:44;;;;;;;1.00;0.60;;;32.70;58.40;;;;;;5143504;27;20055;-76
2022/09/01 10:54:57;;;;;;;2.58;0.63;;;31.90;59.00;;;;;;5127072;27;20135;-75
2022/09/01 10:57:49;;;;;;;2.42;0.52;;;31.10;58.40;;;;;;5136576;27;20047;-77
2022/09/01 11:00:44;;;;;;;1.48;0.60;;;30.40;59.50;;;;;;5135244;27;20050;-75
2022/09/01 11:03:52;;;;;;;1.55;0.70;;;29.50;59.80;;;;;;5136133;27;20046;-75
2022/09/01 11:06:44;;;;;;;1.40;0.57;;;29.10;60.00;;;;;;5135881;27;20047;-74
2022/09/01 11:09:22;;;;;;;1.92;0.60;;;28.30;61.50;;;;;;5120858;27;20051;-75
2022/09/01 11:12:03;;;;;;;2.28;0.80;;;28.20;62.40;;;;;;5142254;27;20062;-75
2022/09/01 11:14:34;;;;;;;11.40;2.13;;;29.30;62.10;;;;;;5138613;27;20056;-75
2022/09/01 11:17:13;;;;;;;4.05;1.23;;;29.80;60.10;;;;;;5138803;27;20043;-75
2022/09/01 11:19:45;;;;;;;2.30;0.60;;;30.90;60.40;;;;;;5156373;27;20078;-76
2022/09/01 11:22:32;;;;;;;2.03;0.65;;;30.50;59.00;;;;;;5157072;27;20047;-74
2022/09/01 11:25:43;;;;;;;2.92;1.02;;;31.00;58.60;;;;;;5156961;27;20130;-75
2022/09/01 11:28:36;;;;;;;3.63;1.10;;;30.30;57.10;;;;;;5135612;27;20047;-75
2022/09/01 11:31:16;;;;;;;2.20;0.60;;;30.60;57.70;;;;;;5137378;27;20075;-75
2022/09/01 11:33:52;;;;;;;2.47;0.52;;;30.20;57.20;;;;;;5154079;27;20047;-74
2022/09/01 11:36:28;;;;;;;1.83;0.80;;;29.10;58.60;;;;;;5127062;27;20047;-75
2022/09/01 11:39:03;;;;;;;2.13;0.70;;;29.40;60.00;;;;;;5156605;27;20065;-74
2022/09/01 11:41:34;;;;;;;1.45;0.63;;;29.60;59.50;;;;;;5133908;27;20058;-74
2022/09/01 11:44:03;;;;;;;1.63;0.70;;;29.50;59.50;;;;;;5117742;27;20082;-74
2022/09/01 11:46:33;;;;;;;3.03;0.60;;;28.80;59.70;;;;;;5117266;27;20055;-75
2022/09/01 11:49:06;;;;;;;1.33;0.60;;;28.40;60.00;;;;;;5134854;27;20134;-75
2022/09/01 11:51:46;;;;;;;2.70;0.70;;;28.00;60.30;;;;;;5136779;27;20125;-74
2022/09/01 11:54:14;;;;;;;2.80;0.80;;;27.60;61.50;;;;;;5116133;27;20055;-75
2022/09/01 11:56:41;;;;;;;5.95;1.15;;;28.70;61.20;;;;;;5135335;27;20051;-75
2022/09/01 11:59:08;;;;;;;3.75;0.80;;;30.00;60.50;;;;;;5116929;27;20105;-74
2022/09/01 12:01:37;;;;;;;6.25;1.08;;;31.20;60.00;;;;;;5143003;27;20371;-75
2022/09/01 12:04:22;;;;;;;2.33;0.60;;;31.30;58.30;;;;;;5133930;27;20050;-75
2022/09/01 12:06:55;;;;;;;3.00;0.70;;;30.20;57.40;;;;;;5150270;27;20047;-75
2022/09/01 12:09:31;;;;;;;1.85;0.68;;;29.30;58.20;;;;;;5155215;27;20085;-75
2022/09/01 12:11:57;;;;;;;2.30;0.60;;;28.30;58.90;;;;;;5137790;27;20054;-75
2022/09/01 12:14:24;;;;;;;1.50;0.63;;;27.80;59.80;;;;;;5137338;27;20050;-75
2022/09/01 12:17:00;;;;;;;1.52;0.70;;;27.70;60.10;;;;;;5155411;27;20046;-75
2022/09/01 12:19:29;;;;;;;1.60;0.60;;;27.20;60.50;;;;;;5128248;27;20125;-74
2022/09/01 12:21:59;;;;;;;;;;;26.90;61.50;;;;;;5117165;27;20053;-74
2022/09/01 12:24:34;;;;;;;1.75;0.70;;;27.10;62.70;;;;;;5132330;27;19924;-74
2022/09/01 12:27:02;;;;;;;1.58;0.70;;;28.10;61.20;;;;;;5117380;27;20050;-74
2022/09/01 12:29:30;;;;;;;1.50;0.77;;;28.80;60.20;;;;;;5115684;27;20042;-74
2022/09/01 12:31:58;;;;;;;1.35;0.68;;;28.40;59.90;;;;;;5129845;27;20390;-75
2022/09/01 12:34:28;;;;;;;4.63;1.02;;;29.10;59.90;;;;;;5137332;27;20061;-76
2022/09/01 12:37:11;;;;;;;2.75;0.80;;;30.00;58.70;;;;;;5135003;27;20513;-75
2022/09/01 12:39:40;;;;;;;1.52;0.70;;;31.30;58.50;;;;;;5136852;27;20536;-75
2022/09/01 12:42:11;;;;;;;3.13;0.63;;;32.00;57.60;;;;;;5124200;27;20092;-75
2022/09/01 12:44:50;;;;;;;2.10;0.70;;;30.80;57.10;;;;;;5130777;27;20504;-74
2022/09/01 12:47:47;;;;;;;4.90;0.80;;;30.00;57.20;;;;;;5117113;27;20510;-76
2022/09/01 12:50:36;;;;;;;3.25;1.13;;;29.00;58.60;;;;;;5142667;27;20059;-74
2022/09/01 12:53:19;;;;;;;2.42;0.77;;;29.30;59.20;;;;;;5155106;27;20558;-74
2022/09/01 12:56:06;;;;;;;1.42;0.57;;;29.80;58.20;;;;;;5133430;27;20043;-74
2022/09/01 12:58:33;;;;;;;2.13;0.60;;;29.50;58.50;;;;;;5124058;27;20039;-76
2022/09/01 13:01:04;;;;;;;4.43;0.77;;;29.20;58.40;;;;;;5136366;27;20055;-76
2022/09/01 13:03:32;;;;;;;2.03;0.50;;;29.20;58.10;;;;;;5136930;27;20051;-75
2022/09/01 13:06:01;;;;;;;1.70;0.50;;;30.00;58.20;;;;;;5136022;27;20051;-74
2022/09/01 13:08:31;;;;;;;2.03;0.77;;;31.10;57.50;;;;;;5154989;27;20043;-76
2022/09/01 13:11:02;;;;;;;4.55;0.90;;;31.50;56.10;;;;;;5136371;27;20137;-75
2022/09/01 13:13:29;;;;;;;1.98;0.60;;;31.80;56.30;;;;;;5153658;27;20042;-74
2022/09/01 13:15:59;;;;;;;1.98;0.80;;;31.90;56.50;;;;;;5135183;27;20050;-75